22:34
Airports
History
Links
Donate
Help keep this website running!
PayPal
Bitcoin
This page is community maintained. The information is intended for PC simulator navigation or reference.
Always use approved charts for navigation.
EGHI
Southampton
Southampton (EGHI)
Southampton, England, United Kingdom
(C)
Lat/Lng:50° 57' 0.92" N / 1° 21' 24.5" W
50.950256 / -1.356806
Elevation:44'ft / 13mMSL
ID / ICAO:EGHI
Runways:1
Longest:02-20
Asphalt 1,722m / 5,650ft
Controlled:Yes
METAR22:20 GMT 2017-09-19
Altimeter: 30.18
Visibility: 6.2 statute miles
Wind: 2 knots (from VRB°)
Temp: 11°c / 52°f
Humidity: 87.5%

METAR: EGHI 192220Z VRB02KT CAVOK 11/09 Q1022

(Powered by phpweather)
Airport Radio Frequencies
ATIS: 113.35
Ground: 121.77
Tower: 118.2
Approach: 128.85
Nearby VORs <50NM
Nearby NDBs
Runway 02 / 20
Dimensions:1722 x 36.9m 5650' x 121'ft
Surface:Asphalt
Edge Lights:High intensity
Runway 02 [A]Runway 20 [B]
Heading:019°TH 199°TH
Lat:
Lng:
50° 56' 34.62"N
1° 21' 39.15"W
50° 57' 27.22"N
1° 21' 9.85"W
ALS:MALSMALS
User Notes and Comments
50° 57' 0.92" N / 1° 21' 24.5" W
Distance To
Airport ID:
Nearby Airports
(U) Lee on Solent 11.4 NM
EGHF SE 145°
4 Chilbolton 12.9 NM
EG18 NNW 346°
(C) AAC Middle Wallop 16.1 NM
EGVP ( WX ) NW 325°
4 Popham 17.8 NM
EGHP NNE 17°
(C) Thruxton 20.8 NM
EGHO NNW 329°
(C) Old Sarum 21.2 NM
EGLS WNW 298°
(C) Lasham 21.6 NM
EGHL NE 40°
VFR Chart
Flight Planning at SkyVector.com